createdAt,value
2017-09-06T00:00:27.835Z,8.37
2017-09-06T00:02:28.791Z,10.63
2017-09-06T00:04:29.759Z,7.60
2017-09-06T00:06:30.700Z,13.03
2017-09-06T00:08:31.656Z,10.13
2017-09-06T00:10:32.597Z,6.73
2017-09-06T00:12:33.548Z,6.80
2017-09-06T00:14:34.492Z,6.60
2017-09-06T00:16:35.451Z,8.03
2017-09-06T00:18:36.388Z,10.13
2017-09-06T00:20:37.351Z,8.10
2017-09-06T00:22:38.309Z,10.83
2017-09-06T00:24:39.262Z,8.40
2017-09-06T00:26:40.951Z,8.17
2017-09-06T00:28:41.903Z,7.47
2017-09-06T00:30:42.875Z,8.67
2017-09-06T00:32:43.828Z,9.37
2017-09-06T00:34:44.764Z,10.53
2017-09-06T00:36:45.732Z,10.20
2017-09-06T00:38:46.681Z,8.03
2017-09-06T00:40:47.650Z,9.93
2017-09-06T00:42:48.604Z,9.40
2017-09-06T00:44:49.777Z,11.90
2017-09-06T00:46:50.736Z,12.20
2017-09-06T00:48:51.680Z,9.33
2017-09-06T00:50:52.636Z,10.93
2017-09-06T00:52:53.603Z,11.33
2017-09-06T00:54:54.553Z,10.30
2017-09-06T00:56:55.512Z,9.33
2017-09-06T00:58:56.512Z,11.30
2017-09-06T01:00:57.467Z,14.27
2017-09-06T01:02:58.424Z,14.80
2017-09-06T01:04:59.389Z,12.03
2017-09-06T01:07:00.337Z,10.73
2017-09-06T01:09:01.312Z,9.40
2017-09-06T01:11:02.316Z,13.07
2017-09-06T01:13:03.266Z,10.10
2017-09-06T01:15:04.268Z,10.73
2017-09-06T01:17:05.221Z,8.57
2017-09-06T01:19:06.185Z,10.40
2017-09-06T01:21:07.156Z,10.47
2017-09-06T01:23:08.112Z,8.40
2017-09-06T01:25:09.072Z,10.13
2017-09-06T01:27:10.008Z,10.20
2017-09-06T01:29:10.976Z,11.60
2017-09-06T01:31:11.925Z,9.63
2017-09-06T01:33:12.872Z,11.23
2017-09-06T01:35:13.852Z,12.77
2017-09-06T01:37:14.814Z,12.23
2017-09-06T01:39:15.802Z,15.20
2017-09-06T01:41:16.768Z,17.20
2017-09-06T01:43:17.704Z,13.63
2017-09-06T01:45:18.655Z,20.23
2017-09-06T01:47:19.587Z,17.50
2017-09-06T01:49:20.536Z,20.30
2017-09-06T01:51:21.496Z,23.53
2017-09-06T01:53:22.511Z,26.43
2017-09-06T01:55:23.472Z,30.03
2017-09-06T01:57:24.444Z,32.13
2017-09-06T01:59:25.389Z,31.60
2017-09-06T02:01:26.358Z,26.70
2017-09-06T02:03:27.312Z,22.97
2017-09-06T02:05:28.292Z,31.13
2017-09-06T02:07:29.270Z,29.87
2017-09-06T02:09:30.206Z,32.10
2017-09-06T02:11:31.200Z,31.07
2017-09-06T02:13:32.172Z,27.53
2017-09-06T02:15:33.125Z,30.93
2017-09-06T02:17:34.107Z,30.43
2017-09-06T02:19:35.037Z,29.27
2017-09-06T02:21:35.977Z,28.47
2017-09-06T02:23:36.933Z,28.70
2017-09-06T02:25:37.877Z,24.47
2017-09-06T02:27:38.803Z,27.83
2017-09-06T02:29:39.762Z,25.67
2017-09-06T02:31:40.703Z,36.13
2017-09-06T02:33:41.635Z,29.93
2017-09-06T02:35:42.589Z,23.90
2017-09-06T02:37:43.529Z,26.10
2017-09-06T02:39:44.460Z,32.70
2017-09-06T02:41:45.388Z,26.00
2017-09-06T02:43:46.355Z,24.73
2017-09-06T02:45:47.321Z,25.97
2017-09-06T02:47:48.253Z,26.27
2017-09-06T02:49:49.217Z,28.57
2017-09-06T02:51:50.148Z,25.87
2017-09-06T02:53:51.096Z,31.10
2017-09-06T02:55:52.032Z,33.10
2017-09-06T02:57:52.972Z,24.70
2017-09-06T02:59:53.931Z,28.60
2017-09-06T03:01:54.877Z,24.37
2017-09-06T03:03:55.813Z,23.70
2017-09-06T03:05:56.748Z,31.10
2017-09-06T03:07:57.684Z,27.03
2017-09-06T03:09:58.623Z,27.77
2017-09-06T03:11:59.973Z,27.37
2017-09-06T03:14:00.901Z,32.73
2017-09-06T03:16:01.840Z,34.80
2017-09-06T03:18:02.771Z,31.93
2017-09-06T03:20:03.706Z,30.83
2017-09-06T03:22:04.660Z,29.93
2017-09-06T03:24:05.605Z,41.53
2017-09-06T03:26:06.547Z,29.17
2017-09-06T03:28:07.480Z,31.87
2017-09-06T03:30:08.430Z,38.47
2017-09-06T03:32:09.376Z,29.23
2017-09-06T03:34:10.313Z,30.57
2017-09-06T03:36:11.287Z,30.47
2017-09-06T03:38:12.220Z,31.87
2017-09-06T03:40:13.308Z,31.00
2017-09-06T03:42:14.252Z,28.03
2017-09-06T03:44:15.180Z,35.33
2017-09-06T03:46:16.131Z,29.50
2017-09-06T03:48:17.089Z,41.33
2017-09-06T03:50:18.015Z,31.80
2017-09-06T03:52:18.960Z,35.30
2017-09-06T03:54:19.891Z,41.83
2017-09-06T03:56:20.816Z,35.23
2017-09-06T03:58:21.749Z,40.27
2017-09-06T04:00:22.680Z,35.60
2017-09-06T04:02:23.612Z,41.70
2017-09-06T04:04:24.556Z,31.30
2017-09-06T04:06:25.488Z,30.90
2017-09-06T04:08:26.430Z,33.70
2017-09-06T04:10:27.391Z,34.60
2017-09-06T04:12:28.444Z,33.80
2017-09-06T04:14:29.436Z,35.60
2017-09-06T04:16:30.415Z,32.47
2017-09-06T04:18:31.357Z,30.27
2017-09-06T04:20:32.299Z,35.05
2017-09-06T04:22:33.245Z,36.10
2017-09-06T04:24:34.183Z,29.90
2017-09-06T04:26:35.117Z,32.47
2017-09-06T04:28:36.061Z,26.90
2017-09-06T04:30:36.997Z,29.47
2017-09-06T04:32:37.930Z,28.97
2017-09-06T04:34:38.889Z,30.97
2017-09-06T04:36:39.854Z,29.70
2017-09-06T04:38:40.814Z,32.20
2017-09-06T04:40:41.743Z,30.33
2017-09-06T04:42:42.687Z,28.23
2017-09-06T04:44:43.624Z,34.23
2017-09-06T04:46:44.561Z,29.43
2017-09-06T04:48:45.509Z,29.33
2017-09-06T04:50:46.432Z,31.90
2017-09-06T04:52:47.424Z,27.60
2017-09-06T04:54:48.399Z,30.57
2017-09-06T04:56:49.336Z,30.00
2017-09-06T04:58:50.265Z,34.63
2017-09-06T05:00:51.207Z,29.43
2017-09-06T05:02:52.137Z,35.53
2017-09-06T05:04:53.085Z,32.63
2017-09-06T05:06:54.088Z,30.23
2017-09-06T05:08:55.008Z,32.40
2017-09-06T05:10:55.961Z,42.83
2017-09-06T05:12:56.898Z,29.97
2017-09-06T05:14:57.854Z,31.97
2017-09-06T05:16:58.783Z,37.03
2017-09-06T05:18:59.704Z,33.33
2017-09-06T05:21:00.782Z,32.70
2017-09-06T05:23:01.856Z,40.73
2017-09-06T05:25:02.820Z,29.37
2017-09-06T05:27:03.753Z,28.30
2017-09-06T05:29:04.764Z,29.97
2017-09-06T05:31:05.753Z,27.77
2017-09-06T05:33:06.688Z,32.10
2017-09-06T05:35:07.639Z,30.60
2017-09-06T05:37:08.573Z,29.30
2017-09-06T05:39:09.505Z,32.57
2017-09-06T05:41:10.444Z,30.90
2017-09-06T05:43:11.377Z,32.80
2017-09-06T05:45:12.314Z,30.13
2017-09-06T05:47:13.254Z,31.83
2017-09-06T05:49:14.544Z,34.67
2017-09-06T05:51:15.492Z,30.13
2017-09-06T05:53:16.423Z,28.03
2017-09-06T05:55:17.498Z,32.37
2017-09-06T05:57:18.436Z,27.10
2017-09-06T05:59:19.361Z,29.87
2017-09-06T06:01:20.314Z,28.37
2017-09-06T06:03:21.271Z,31.77
2017-09-06T06:05:22.213Z,36.80
2017-09-06T06:07:23.162Z,34.37
2017-09-06T06:09:24.105Z,35.60
2017-09-06T06:11:25.060Z,29.87
2017-09-06T06:13:26.007Z,43.70
2017-09-06T06:15:26.937Z,42.57
2017-09-06T06:17:27.886Z,34.43
2017-09-06T06:19:28.817Z,36.87
2017-09-06T06:21:29.752Z,37.97
2017-09-06T06:23:30.696Z,28.93
2017-09-06T06:25:31.631Z,42.03
2017-09-06T06:27:32.557Z,34.73
2017-09-06T06:29:33.496Z,32.83
2017-09-06T06:31:34.430Z,37.20
2017-09-06T06:33:35.371Z,29.23
2017-09-06T06:35:36.324Z,36.23
2017-09-06T06:37:37.257Z,31.83
2017-09-06T06:39:45.296Z,35.37
2017-09-06T06:41:46.227Z,35.53
2017-09-06T06:43:47.164Z,37.43
2017-09-06T06:45:48.246Z,38.67
2017-09-06T06:47:49.169Z,34.63
2017-09-06T06:49:50.101Z,31.63
2017-09-06T06:52:00.361Z,37.00
2017-09-06T06:54:09.546Z,34.97
2017-09-06T06:56:10.477Z,38.17
2017-09-06T06:58:11.405Z,41.30
2017-09-06T07:00:12.389Z,51.17
2017-09-06T07:02:13.328Z,40.97
2017-09-06T07:04:14.248Z,45.73
2017-09-06T07:06:15.228Z,38.13
2017-09-06T07:08:16.181Z,35.67
2017-09-06T07:10:17.125Z,43.57
2017-09-06T07:12:18.220Z,35.83
2017-09-06T07:14:19.193Z,36.23
2017-09-06T07:16:20.152Z,39.20
2017-09-06T07:18:21.072Z,40.07
2017-09-06T07:20:22.561Z,38.80
2017-09-06T07:22:23.517Z,35.37
2017-09-06T07:24:24.435Z,37.90
2017-09-06T07:26:25.364Z,47.53
2017-09-06T07:28:26.288Z,34.87
2017-09-06T07:30:27.245Z,35.17
2017-09-06T07:32:28.164Z,34.50
2017-09-06T07:34:29.142Z,35.80
2017-09-06T07:36:30.072Z,29.20
2017-09-06T07:38:30.996Z,32.93
2017-09-06T07:40:31.935Z,33.77
2017-09-06T07:42:32.885Z,34.93
2017-09-06T07:44:33.812Z,27.80
2017-09-06T07:46:34.738Z,31.10
2017-09-06T07:48:35.703Z,30.63
2017-09-06T07:50:36.633Z,32.43
2017-09-06T07:52:37.577Z,30.00
2017-09-06T07:54:38.501Z,30.47
2017-09-06T07:56:39.445Z,27.50
2017-09-06T07:58:40.405Z,26.57
2017-09-06T08:00:41.345Z,27.07
2017-09-06T08:02:42.284Z,26.17
2017-09-06T08:04:43.213Z,25.80
2017-09-06T08:06:44.162Z,25.17
2017-09-06T08:08:45.102Z,25.53
2017-09-06T08:10:46.036Z,27.90
2017-09-06T08:12:46.984Z,28.07
2017-09-06T08:14:47.950Z,24.90
2017-09-06T08:16:48.885Z,24.47
2017-09-06T08:18:49.822Z,27.73
2017-09-06T08:20:50.760Z,24.03
2017-09-06T08:22:51.688Z,26.63
2017-09-06T08:24:52.628Z,28.07
2017-09-06T08:26:53.578Z,27.85
2017-09-06T08:28:54.512Z,23.80
2017-09-06T08:30:55.436Z,27.40
2017-09-06T08:32:56.367Z,24.53
2017-09-06T08:34:57.302Z,23.77
2017-09-06T08:36:58.228Z,26.50
2017-09-06T08:38:59.323Z,23.83
2017-09-06T08:41:00.260Z,23.17
2017-09-06T08:43:01.192Z,22.33
2017-09-06T08:45:02.132Z,23.13
2017-09-06T08:47:03.054Z,21.83
2017-09-06T08:49:03.981Z,19.33
2017-09-06T08:51:04.915Z,18.75
2017-09-06T08:53:05.849Z,21.23
2017-09-06T08:55:06.801Z,19.67
2017-09-06T08:57:07.753Z,21.67
2017-09-06T08:59:08.701Z,20.67
2017-09-06T09:01:09.653Z,22.33
2017-09-06T09:03:10.589Z,24.10
2017-09-06T09:05:11.528Z,21.77
2017-09-06T09:07:12.464Z,21.97
2017-09-06T09:09:13.401Z,24.87
2017-09-06T09:11:14.403Z,20.73
2017-09-06T09:13:15.333Z,19.93
2017-09-06T09:15:16.288Z,20.90
2017-09-06T09:17:17.225Z,25.63
2017-09-06T09:19:18.159Z,20.37
2017-09-06T09:21:19.103Z,21.33
2017-09-06T09:23:20.039Z,18.93
2017-09-06T09:25:20.980Z,17.13
2017-09-06T09:27:21.913Z,16.60
2017-09-06T09:29:22.849Z,16.63
2017-09-06T09:31:23.783Z,14.03
2017-09-06T09:33:24.716Z,14.57
2017-09-06T09:35:25.641Z,11.93
2017-09-06T09:37:26.571Z,10.17
2017-09-06T09:39:27.496Z,10.60
2017-09-06T09:41:35.380Z,12.37
2017-09-06T09:43:36.299Z,12.60
2017-09-06T09:45:37.221Z,12.80
2017-09-06T09:47:38.154Z,12.00
2017-09-06T09:49:39.085Z,12.37
2017-09-06T09:51:40.031Z,11.40
2017-09-06T09:53:40.965Z,12.03
2017-09-06T09:55:41.884Z,15.73
2017-09-06T09:57:42.815Z,13.50
2017-09-06T09:59:43.739Z,16.00
2017-09-06T10:01:44.676Z,13.47
2017-09-06T10:03:45.616Z,23.33
2017-09-06T10:05:46.628Z,19.50
2017-09-06T10:07:47.566Z,16.67
2017-09-06T10:09:48.491Z,18.43
2017-09-06T10:11:49.417Z,16.30
2017-09-06T10:13:50.344Z,15.83
2017-09-06T10:15:51.281Z,32.47
2017-09-06T10:17:52.216Z,16.23
2017-09-06T10:19:53.135Z,12.70
2017-09-06T10:21:54.084Z,8.93
2017-09-06T10:23:55.015Z,13.67
2017-09-06T10:25:55.941Z,19.50
2017-09-06T10:27:56.879Z,15.20
2017-09-06T10:29:57.804Z,14.13
2017-09-06T10:31:58.730Z,12.20
2017-09-06T10:33:59.670Z,11.60
2017-09-06T10:36:00.604Z,15.73
2017-09-06T10:38:01.545Z,9.17
2017-09-06T10:40:02.482Z,9.67
2017-09-06T10:42:03.411Z,9.63
2017-09-06T10:44:04.341Z,8.13
2017-09-06T10:46:05.282Z,12.00
2017-09-06T10:48:06.233Z,12.73
2017-09-06T10:50:07.163Z,5.93
2017-09-06T10:52:08.089Z,5.23
2017-09-06T10:54:09.040Z,5.63
2017-09-06T10:56:09.968Z,7.13
2017-09-06T10:58:10.929Z,5.70
2017-09-06T11:00:12.160Z,5.53
2017-09-06T11:02:13.086Z,5.53
2017-09-06T11:04:14.021Z,10.13
2017-09-06T11:06:14.945Z,4.60
2017-09-06T11:08:15.872Z,5.03
2017-09-06T11:10:16.796Z,5.07
2017-09-06T11:12:17.731Z,4.20
2017-09-06T11:14:18.686Z,4.23
2017-09-06T11:16:19.624Z,7.77
2017-09-06T11:18:20.568Z,3.67
2017-09-06T11:20:21.507Z,4.30
2017-09-06T11:22:22.440Z,3.40
2017-09-06T11:24:23.395Z,4.77
2017-09-06T11:26:24.323Z,5.45
2017-09-06T11:28:25.253Z,2.60
2017-09-06T11:30:26.205Z,8.00
2017-09-06T11:32:27.135Z,6.90
2017-09-06T11:34:28.064Z,1.87
2017-09-06T11:36:29.005Z,1.93
2017-09-06T11:38:29.925Z,2.40
2017-09-06T11:40:30.852Z,2.10
2017-09-06T11:42:31.786Z,5.50
2017-09-06T11:44:32.720Z,7.93
2017-09-06T11:46:33.660Z,1.50
2017-09-06T11:48:34.580Z,6.00
2017-09-06T11:50:35.520Z,2.17
2017-09-06T11:52:36.452Z,13.23
2017-09-06T11:54:37.379Z,3.10
2017-09-06T11:56:38.324Z,1.73
2017-09-06T11:58:39.247Z,1.43
2017-09-06T12:00:40.189Z,3.50
2017-09-06T12:02:41.243Z,1.63
2017-09-06T12:04:42.184Z,5.07
2017-09-06T12:06:43.119Z,5.60
2017-09-06T12:08:44.052Z,1.47
2017-09-06T12:10:44.986Z,2.73
2017-09-06T12:12:45.928Z,2.53
2017-09-06T12:14:46.853Z,2.70
2017-09-06T12:16:47.800Z,1.20
2017-09-06T12:18:48.727Z,1.70
2017-09-06T12:20:49.664Z,1.40
2017-09-06T12:22:50.647Z,1.53
2017-09-06T12:24:51.580Z,10.23
2017-09-06T12:26:52.531Z,3.93
2017-09-06T12:28:53.461Z,3.40
2017-09-06T12:30:54.401Z,7.30
2017-09-06T12:32:55.340Z,4.60
2017-09-06T12:34:56.393Z,3.97
2017-09-06T12:36:57.320Z,2.50
2017-09-06T12:38:58.261Z,1.53
2017-09-06T12:40:59.205Z,2.03
2017-09-06T12:43:00.136Z,2.60
2017-09-06T12:45:01.070Z,1.10
2017-09-06T12:47:01.991Z,5.13
2017-09-06T12:49:02.927Z,2.20
2017-09-06T12:51:03.855Z,7.33
2017-09-06T12:53:04.799Z,3.47
2017-09-06T12:55:05.765Z,3.73
2017-09-06T12:57:06.688Z,7.10
2017-09-06T12:59:07.622Z,4.17
2017-09-06T13:01:08.539Z,2.40
2017-09-06T13:03:09.472Z,4.40
2017-09-06T13:05:10.403Z,5.70
2017-09-06T13:07:11.345Z,3.07
2017-09-06T13:09:12.290Z,2.20
2017-09-06T13:11:13.219Z,1.80
2017-09-06T13:13:14.155Z,2.80
2017-09-06T13:15:15.088Z,2.00
2017-09-06T13:17:16.021Z,2.27
2017-09-06T13:19:16.975Z,4.72
2017-09-06T13:21:17.917Z,5.10
2017-09-06T13:23:18.865Z,6.80
2017-09-06T13:25:19.813Z,3.10
2017-09-06T13:27:20.746Z,2.20
2017-09-06T13:29:21.689Z,3.73
2017-09-06T13:31:22.627Z,4.53
2017-09-06T13:33:23.556Z,4.40
2017-09-06T13:35:24.502Z,3.33
2017-09-06T13:37:25.426Z,3.37
2017-09-06T13:39:26.359Z,4.20
2017-09-06T13:41:27.296Z,5.33
2017-09-06T13:43:28.225Z,5.70
2017-09-06T13:45:29.157Z,4.90
2017-09-06T13:47:30.100Z,7.03
2017-09-06T13:49:31.045Z,8.40
2017-09-06T13:51:31.977Z,5.10
2017-09-06T13:53:32.918Z,4.00
2017-09-06T13:55:33.840Z,11.53
2017-09-06T13:57:34.780Z,5.17
2017-09-06T13:59:35.712Z,4.33
2017-09-06T14:01:36.658Z,8.87
2017-09-06T14:03:37.582Z,2.70
2017-09-06T14:05:38.521Z,3.37
2017-09-06T14:07:39.460Z,4.67
2017-09-06T14:09:40.384Z,5.97
2017-09-06T14:11:41.349Z,11.00
2017-09-06T14:13:42.287Z,7.57
2017-09-06T14:15:43.238Z,7.60
2017-09-06T14:17:44.179Z,6.97
2017-09-06T14:19:45.119Z,8.80
2017-09-06T14:21:46.080Z,6.53
2017-09-06T14:23:47.018Z,7.23
2017-09-06T14:25:47.949Z,9.70
2017-09-06T14:27:48.989Z,5.67
2017-09-06T14:29:49.943Z,7.53
2017-09-06T14:31:50.880Z,6.60
2017-09-06T14:33:51.815Z,6.90
2017-09-06T14:35:52.755Z,6.00
2017-09-06T14:37:53.696Z,7.10
2017-09-06T14:39:54.632Z,8.90
2017-09-06T14:41:55.575Z,6.63
2017-09-06T14:43:56.516Z,6.50
2017-09-06T14:45:57.453Z,5.47
2017-09-06T14:47:58.388Z,9.23
2017-09-06T14:49:59.311Z,6.87
2017-09-06T14:52:00.253Z,7.80
2017-09-06T14:54:01.184Z,5.67
2017-09-06T14:56:02.119Z,8.83
2017-09-06T14:58:03.048Z,4.73
2017-09-06T15:00:04.255Z,8.33
2017-09-06T15:02:05.323Z,8.27
2017-09-06T15:04:06.265Z,4.27
2017-09-06T15:06:07.207Z,8.43
2017-09-06T15:08:08.141Z,5.73
2017-09-06T15:10:09.071Z,7.03
2017-09-06T15:12:10.006Z,9.40
2017-09-06T15:14:10.969Z,3.30
2017-09-06T15:16:11.900Z,5.10
2017-09-06T15:18:12.832Z,8.30
2017-09-06T15:20:13.780Z,5.80
2017-09-06T15:22:14.712Z,5.20
2017-09-06T15:24:15.737Z,3.57
2017-09-06T15:26:16.673Z,3.90
2017-09-06T15:28:17.603Z,6.30
2017-09-06T15:30:18.544Z,7.23
2017-09-06T15:32:19.488Z,7.07
2017-09-06T15:34:20.437Z,5.60
2017-09-06T15:36:21.393Z,9.37
2017-09-06T15:38:22.342Z,4.13
2017-09-06T15:40:23.294Z,9.00
2017-09-06T15:42:24.219Z,4.60
2017-09-06T15:44:25.144Z,2.70
2017-09-06T15:46:26.093Z,8.27
2017-09-06T15:48:27.017Z,4.13
2017-09-06T15:50:27.965Z,3.27
2017-09-06T15:52:28.888Z,4.80
2017-09-06T15:54:29.828Z,6.13
2017-09-06T15:56:30.759Z,5.43
2017-09-06T15:58:31.692Z,5.60
2017-09-06T16:00:32.659Z,4.43
2017-09-06T16:02:34.508Z,3.53
2017-09-06T16:04:35.433Z,4.63
2017-09-06T16:06:36.459Z,4.53
2017-09-06T16:08:37.396Z,4.03
2017-09-06T16:10:39.083Z,4.80
2017-09-06T16:12:40.020Z,3.13
2017-09-06T16:14:40.950Z,8.80
2017-09-06T16:16:41.889Z,6.17
2017-09-06T16:18:42.823Z,4.62
2017-09-06T16:20:43.749Z,9.47
2017-09-06T16:22:44.695Z,5.23
2017-09-06T16:24:45.637Z,7.23
2017-09-06T16:26:46.612Z,4.07
2017-09-06T16:28:47.528Z,4.87
2017-09-06T16:30:48.464Z,10.73
2017-09-06T16:32:49.436Z,9.43
2017-09-06T16:34:50.336Z,5.50
2017-09-06T16:36:51.292Z,10.50
2017-09-06T16:38:52.236Z,7.90
2017-09-06T16:40:53.172Z,6.93
2017-09-06T16:42:54.119Z,12.20
2017-09-06T16:44:55.049Z,6.23
2017-09-06T16:46:56.002Z,6.47
2017-09-06T16:48:56.937Z,6.80
2017-09-06T16:50:57.873Z,6.23
2017-09-06T16:52:58.817Z,8.00
2017-09-06T16:54:59.737Z,8.70
2017-09-06T16:57:00.679Z,6.20
2017-09-06T16:59:01.608Z,7.03
2017-09-06T17:01:02.552Z,3.97
2017-09-06T17:03:03.511Z,9.20
2017-09-06T17:05:04.424Z,5.13
2017-09-06T17:07:05.360Z,8.93
2017-09-06T17:09:06.299Z,16.13
2017-09-06T17:11:07.250Z,8.03
2017-09-06T17:13:08.208Z,10.60
2017-09-06T17:15:09.139Z,5.60
2017-09-06T17:17:10.124Z,5.50
2017-09-06T17:19:11.062Z,11.30
2017-09-06T17:21:12.022Z,4.83
2017-09-06T17:23:12.988Z,5.40
2017-09-06T17:25:13.920Z,6.10
2017-09-06T17:27:14.850Z,5.80
2017-09-06T17:29:15.789Z,7.10
2017-09-06T17:31:16.725Z,5.03
2017-09-06T17:33:17.676Z,8.50
2017-09-06T17:35:18.613Z,6.60
2017-09-06T17:37:19.545Z,13.93
2017-09-06T17:39:20.493Z,5.47
2017-09-06T17:41:21.424Z,7.90
2017-09-06T17:43:22.381Z,4.57
2017-09-06T17:45:24.059Z,6.93
2017-09-06T17:47:25.013Z,8.60
2017-09-06T17:49:26.268Z,10.60
2017-09-06T17:51:27.231Z,11.10
2017-09-06T17:53:28.168Z,7.90
2017-09-06T17:55:29.132Z,4.50
2017-09-06T17:57:30.056Z,9.53
2017-09-06T17:59:31.353Z,8.53
2017-09-06T18:01:32.281Z,10.13
2017-09-06T18:03:33.244Z,12.70
2017-09-06T18:05:34.200Z,5.77
2017-09-06T18:07:35.147Z,12.53
2017-09-06T18:09:36.217Z,9.30
2017-09-06T18:11:37.156Z,5.33
2017-09-06T18:13:38.100Z,6.40
2017-09-06T18:15:39.040Z,8.93
2017-09-06T18:17:39.993Z,7.97
2017-09-06T18:19:40.965Z,10.60
2017-09-06T18:21:41.917Z,7.55
2017-09-06T18:23:42.867Z,9.03
2017-09-06T18:25:43.865Z,11.83
2017-09-06T18:27:44.806Z,13.60
2017-09-06T18:29:45.740Z,10.90
2017-09-06T18:31:46.677Z,10.77
2017-09-06T18:33:47.611Z,5.00
2017-09-06T18:35:48.539Z,7.83
2017-09-06T18:37:49.476Z,8.80
2017-09-06T18:39:50.419Z,21.80
2017-09-06T18:41:51.439Z,9.17
2017-09-06T18:43:52.437Z,10.97
2017-09-06T18:45:53.367Z,8.70
2017-09-06T18:47:54.338Z,29.70
2017-09-06T18:49:55.352Z,15.33
2017-09-06T18:51:56.327Z,15.30
2017-09-06T18:53:57.273Z,8.87
2017-09-06T18:55:58.250Z,16.13
2017-09-06T18:57:59.499Z,17.07
2017-09-06T19:00:00.423Z,16.10
2017-09-06T19:02:01.452Z,16.53
2017-09-06T19:04:02.408Z,10.40
2017-09-06T19:06:03.351Z,19.97
2017-09-06T19:08:04.288Z,11.63
2017-09-06T19:10:05.284Z,10.57
2017-09-06T19:12:06.254Z,23.17
2017-09-06T19:14:07.211Z,14.13
2017-09-06T19:16:08.153Z,7.03
2017-09-06T19:18:09.200Z,13.20
2017-09-06T19:20:10.251Z,14.52
2017-09-06T19:22:11.197Z,17.97
2017-09-06T19:24:12.151Z,14.47
2017-09-06T19:26:13.108Z,8.77
2017-09-06T19:28:14.040Z,8.03
2017-09-06T19:30:14.985Z,9.63
2017-09-06T19:32:15.916Z,12.77
2017-09-06T19:34:16.867Z,13.87
2017-09-06T19:36:17.791Z,7.50
2017-09-06T19:38:18.723Z,11.30
2017-09-06T19:40:19.675Z,12.40
2017-09-06T19:42:20.616Z,13.40
2017-09-06T19:44:21.668Z,15.73
2017-09-06T19:46:22.608Z,9.10
2017-09-06T19:48:23.556Z,16.60
2017-09-06T19:50:24.629Z,12.23
2017-09-06T19:54:33.377Z,7.00
2017-09-06T19:56:34.312Z,11.37
2017-09-06T19:58:35.262Z,11.53
2017-09-06T20:00:36.288Z,12.43
2017-09-06T20:02:37.221Z,10.00
2017-09-06T20:04:38.295Z,11.07
2017-09-06T20:06:39.277Z,10.27
2017-09-06T20:08:40.214Z,10.23
2017-09-06T20:10:41.147Z,20.63
2017-09-06T20:12:42.088Z,8.60
2017-09-06T20:14:43.016Z,15.77
2017-09-06T20:16:43.971Z,10.70
2017-09-06T20:18:44.908Z,14.77
2017-09-06T20:20:45.924Z,14.13
2017-09-06T20:22:46.882Z,15.87
2017-09-06T20:24:47.829Z,20.23
2017-09-06T20:26:49.596Z,10.33
2017-09-06T20:28:50.713Z,16.90
2017-09-06T20:30:51.835Z,10.63
2017-09-06T20:32:52.947Z,10.13
2017-09-06T20:34:53.891Z,11.93
2017-09-06T20:36:54.865Z,12.83
2017-09-06T20:38:55.812Z,16.03
2017-09-06T20:40:56.885Z,21.00
2017-09-06T20:42:57.879Z,16.97
2017-09-06T20:44:58.879Z,11.53
2017-09-06T20:46:59.825Z,14.70
2017-09-06T20:49:01.274Z,14.73
2017-09-06T20:51:03.359Z,23.50
2017-09-06T20:53:05.109Z,13.57
2017-09-06T20:55:06.254Z,21.98
2017-09-06T20:57:08.004Z,16.23
2017-09-06T20:59:09.039Z,17.43
2017-09-06T21:01:10.700Z,19.67
2017-09-06T21:03:11.666Z,10.50
2017-09-06T21:05:12.786Z,14.03
2017-09-06T21:07:14.045Z,20.87
2017-09-06T21:09:15.309Z,17.90
2017-09-06T21:11:16.371Z,14.87
2017-09-06T21:13:17.363Z,21.97
2017-09-06T21:15:18.304Z,16.87
2017-09-06T21:17:19.388Z,17.97
2017-09-06T21:19:20.377Z,13.77
2017-09-06T21:21:21.303Z,15.37
2017-09-06T21:23:22.295Z,24.87
2017-09-06T21:25:23.456Z,22.70
2017-09-06T21:27:24.479Z,23.87
2017-09-06T21:29:25.435Z,18.80
2017-09-06T21:31:26.376Z,25.53
2017-09-06T21:33:27.623Z,17.20
2017-09-06T21:35:28.864Z,19.10
2017-09-06T21:37:29.797Z,16.83
2017-09-06T21:39:30.928Z,20.40
2017-09-06T21:41:31.897Z,18.83
2017-09-06T21:43:39.967Z,23.83
2017-09-06T21:45:40.932Z,28.13
2017-09-06T21:47:41.871Z,25.70
2017-09-06T21:49:42.808Z,18.47
2017-09-06T21:51:43.747Z,20.63
2017-09-06T21:53:44.708Z,17.43
2017-09-06T21:55:45.669Z,19.20
2017-09-06T21:57:46.623Z,17.03
2017-09-06T21:59:47.559Z,21.83
2017-09-06T22:01:48.526Z,27.83
2017-09-06T22:03:49.485Z,26.53
2017-09-06T22:05:50.416Z,21.30
2017-09-06T22:07:51.406Z,19.45
2017-09-06T22:09:52.340Z,20.57
2017-09-06T22:11:53.289Z,21.40
2017-09-06T22:13:54.259Z,21.97
2017-09-06T22:15:55.204Z,23.30
2017-09-06T22:18:26.776Z,16.13
2017-09-06T22:20:27.716Z,26.30
2017-09-06T22:22:28.672Z,17.80
2017-09-06T22:24:29.621Z,18.33
2017-09-06T22:26:30.560Z,21.10
2017-09-06T22:28:31.495Z,28.63
2017-09-06T22:30:32.423Z,30.23
2017-09-06T22:32:33.366Z,29.00
2017-09-06T22:34:34.295Z,19.93
2017-09-06T22:36:35.239Z,19.67
2017-09-06T22:38:36.171Z,26.83
2017-09-06T22:40:37.379Z,14.60
2017-09-06T22:42:39.068Z,35.27
2017-09-06T22:44:39.998Z,28.77
2017-09-06T22:46:40.927Z,20.63
2017-09-06T22:48:41.887Z,21.00
2017-09-06T22:50:42.820Z,32.57
2017-09-06T22:52:43.753Z,27.77
2017-09-06T22:54:44.721Z,25.60
2017-09-06T22:56:45.682Z,27.83
2017-09-06T22:58:47.367Z,24.17
2017-09-06T23:00:48.307Z,26.50
2017-09-06T23:02:49.251Z,22.80
2017-09-06T23:04:50.200Z,23.87
2017-09-06T23:06:51.119Z,25.87
2017-09-06T23:08:52.059Z,27.63
2017-09-06T23:10:53.008Z,27.43
2017-09-06T23:12:53.943Z,30.90
2017-09-06T23:14:54.895Z,26.80
2017-09-06T23:16:56.001Z,42.77
2017-09-06T23:18:56.971Z,38.53
2017-09-06T23:20:57.923Z,26.80
2017-09-06T23:22:59.614Z,29.37
2017-09-06T23:25:00.552Z,28.47
2017-09-06T23:27:01.508Z,25.00
2017-09-06T23:29:02.463Z,29.13
2017-09-06T23:31:03.419Z,24.13
2017-09-06T23:33:05.109Z,19.07
2017-09-06T23:35:06.059Z,26.87
2017-09-06T23:37:06.985Z,27.27
2017-09-06T23:39:07.920Z,24.30
2017-09-06T23:41:08.868Z,26.17
2017-09-06T23:43:09.804Z,28.80
2017-09-06T23:45:10.753Z,30.90
2017-09-06T23:47:11.701Z,21.63
2017-09-06T23:49:12.648Z,35.40
2017-09-06T23:51:14.339Z,42.67
2017-09-06T23:53:15.288Z,26.53
2017-09-06T23:55:16.232Z,34.17
2017-09-06T23:57:17.201Z,23.23
2017-09-06T23:59:18.888Z,25.80
